createdAt,value
2022-11-17T00:00:37.910Z,100403.88
2022-11-17T00:01:38.679Z,100403.38
2022-11-17T00:02:38.847Z,100401.47
2022-11-17T00:03:39.507Z,100401.31
2022-11-17T00:04:39.924Z,100398.45
2022-11-17T00:05:40.260Z,100403.22
2022-11-17T00:06:40.560Z,100400.95
2022-11-17T00:07:41.064Z,100402.97
2022-11-17T00:08:41.709Z,100400.34
2022-11-17T00:09:42.222Z,100401.2
2022-11-17T00:10:42.011Z,100402.02
2022-11-17T00:11:42.428Z,100399.48
2022-11-17T00:12:43.159Z,100399.46
2022-11-17T00:13:43.059Z,100403.25
2022-11-17T00:14:43.477Z,100402.14
2022-11-17T00:15:45.125Z,100400.84
2022-11-17T00:16:50.765Z,100395.59
2022-11-17T00:17:49.234Z,100398.31
2022-11-17T00:18:49.438Z,100396.53
2022-11-17T00:19:49.645Z,100397.92
2022-11-17T00:20:50.066Z,100393.98
2022-11-17T00:21:50.382Z,100390.98
2022-11-17T00:22:50.900Z,100393.29
2022-11-17T00:23:51.312Z,100391.9
2022-11-17T00:24:52.347Z,100390.19
2022-11-17T00:25:52.254Z,100394.17
2022-11-17T00:26:52.370Z,100387.62
2022-11-17T00:27:53.000Z,100391.19
2022-11-17T00:28:54.571Z,100387.98
2022-11-17T00:29:53.704Z,100387.22
2022-11-17T00:30:53.727Z,100383.23
2022-11-17T00:31:54.342Z,100385.3
2022-11-17T00:32:54.655Z,100378.66
2022-11-17T00:33:54.971Z,100381.12
2022-11-17T00:34:55.295Z,100382.73
2022-11-17T00:35:55.898Z,100381.9
2022-11-17T00:36:56.009Z,100383.52
2022-11-17T00:37:56.220Z,100380.12
2022-11-17T00:38:56.538Z,100377.84
2022-11-17T00:40:00.794Z,100375.8
2022-11-17T00:40:59.220Z,100374.14
2022-11-17T00:41:59.830Z,100368.3
2022-11-17T00:43:00.048Z,100366
2022-11-17T00:44:00.460Z,100362.22
2022-11-17T00:45:00.678Z,100365.7
2022-11-17T00:46:01.202Z,100360.41
2022-11-17T00:47:01.609Z,100360.22
2022-11-17T00:48:01.923Z,100360.5
2022-11-17T00:49:02.446Z,100357.3
2022-11-17T00:50:02.545Z,100358.88
2022-11-17T00:51:06.450Z,100354.56
2022-11-17T00:52:05.021Z,100352.38
2022-11-17T00:53:04.669Z,100355.14
2022-11-17T00:54:06.263Z,100349.78
2022-11-17T00:55:06.430Z,100348.5
2022-11-17T00:56:06.585Z,100344.81
2022-11-17T00:57:06.291Z,100346.58
2022-11-17T00:58:06.490Z,100346.75
2022-11-17T00:59:06.905Z,100341.69
2022-11-17T01:00:08.799Z,100341.3
2022-11-17T01:01:07.686Z,100343.07
2022-11-17T01:02:08.051Z,100338.45
2022-11-17T01:03:08.171Z,100339.76
2022-11-17T01:04:08.779Z,100339.11
2022-11-17T01:05:09.920Z,100337.99
2022-11-17T01:06:16.276Z,100338.86
2022-11-17T01:07:13.868Z,100334.13
2022-11-17T01:08:14.467Z,100333.61
2022-11-17T01:09:20.620Z,100330.29
2022-11-17T01:10:18.757Z,100332.88
2022-11-17T01:11:20.404Z,100333.86
2022-11-17T01:12:19.294Z,100329.53
2022-11-17T01:13:19.590Z,100330.73
2022-11-17T01:14:23.493Z,100331.89
2022-11-17T01:15:21.252Z,100326.52
2022-11-17T01:16:22.273Z,100327
2022-11-17T01:17:21.980Z,100325.53
2022-11-17T01:18:22.290Z,100323.27
2022-11-17T01:19:24.353Z,100322.89
2022-11-17T01:20:23.017Z,100323.78
2022-11-17T01:21:25.376Z,100320.52
2022-11-17T01:22:23.762Z,100320.39
2022-11-17T01:23:24.075Z,100316.39
2022-11-17T01:24:24.377Z,100315.55
2022-11-17T01:25:24.543Z,100310.86
2022-11-17T01:26:27.570Z,100307.25
2022-11-17T01:27:25.520Z,100304.8
2022-11-17T01:28:25.941Z,100306.84
2022-11-17T01:29:26.251Z,100305.09
2022-11-17T01:30:26.669Z,100300.28
2022-11-17T01:31:32.512Z,100303.06
2022-11-17T01:32:30.460Z,100302.27
2022-11-17T01:33:31.784Z,100298
2022-11-17T01:34:31.610Z,100293.48
2022-11-17T01:35:34.493Z,100294.32
2022-11-17T01:36:37.457Z,100298.41
2022-11-17T01:37:35.325Z,100296.64
2022-11-17T01:38:35.735Z,100293.7
2022-11-17T01:39:36.183Z,100297.61
2022-11-17T01:40:36.569Z,100295.57
2022-11-17T01:41:36.887Z,100296.58
2022-11-17T01:42:37.095Z,100295.81
2022-11-17T01:45:42.234Z,100289.97
2022-11-17T01:46:42.346Z,100289.34
2022-11-17T01:48:48.196Z,100290.23
2022-11-17T01:49:47.800Z,100288.69
2022-11-17T01:50:48.197Z,100285.21
2022-11-17T01:51:53.119Z,100283.25
2022-11-17T01:52:54.363Z,100282.95
2022-11-17T01:53:52.940Z,100282.59
2022-11-17T01:54:55.196Z,100284.2
2022-11-17T01:55:56.730Z,100285.78
2022-11-17T01:57:00.551Z,100286.57
2022-11-17T02:00:08.025Z,100285.07
2022-11-17T02:01:06.766Z,100281.08
2022-11-17T02:02:07.888Z,100282.43
2022-11-17T02:03:06.916Z,100279.13
2022-11-17T02:04:07.024Z,100277.47
2022-11-17T02:08:21.393Z,100276.88
2022-11-17T02:09:20.677Z,100270.86
2022-11-17T02:10:20.073Z,100269.12
2022-11-17T02:11:21.416Z,100265.83
2022-11-17T02:12:22.236Z,100266.81
2022-11-17T02:13:24.186Z,100265.59
2022-11-17T02:14:22.160Z,100265.75
2022-11-17T02:15:23.283Z,100263.38
2022-11-17T02:16:22.871Z,100264.14
2022-11-17T02:17:25.136Z,100262.35
2022-11-17T02:18:23.633Z,100261.7
2022-11-17T02:19:27.705Z,100261.34
2022-11-17T02:41:19.458Z,100251.58
2022-11-17T02:42:20.901Z,100248.94
2022-11-17T02:43:20.905Z,100248.14
2022-11-17T02:45:25.418Z,100252.86
2022-11-17T02:46:25.228Z,100249.62
2022-11-17T02:47:29.121Z,100252.69
2022-11-17T02:48:32.306Z,100245.19
2022-11-17T02:49:35.991Z,100246.19
2022-11-17T02:50:35.591Z,100241.67
2022-11-17T02:51:37.018Z,100239.98
2022-11-17T02:52:35.499Z,100238.46
2022-11-17T02:53:36.454Z,100234.7
2022-11-17T02:54:35.722Z,100235.58
2022-11-17T02:55:36.648Z,100236.94
2022-11-17T02:56:41.468Z,100243.2
2022-11-17T02:57:42.393Z,100241.67
2022-11-17T02:58:40.353Z,100241.73
2022-11-17T02:59:46.813Z,100234.87
2022-11-17T03:11:13.812Z,100222.47
2022-11-17T03:21:54.851Z,100212.69
2022-11-17T03:25:01.116Z,100203.88
2022-11-17T03:26:01.528Z,100203.06
2022-11-17T03:27:06.553Z,100205.97
2022-11-17T03:28:08.908Z,100206.14
2022-11-17T03:29:13.425Z,100204.09
2022-11-17T03:30:13.117Z,100204.5
2022-11-17T03:31:14.251Z,100200.47
2022-11-17T03:32:15.392Z,100202.38
2022-11-17T03:33:18.054Z,100197.52
2022-11-17T03:34:22.268Z,100200.36
2022-11-17T03:37:31.520Z,100187.64
2022-11-17T03:38:34.492Z,100187.2
2022-11-17T03:39:35.119Z,100184.95
2022-11-17T03:40:35.415Z,100186.23
2022-11-17T03:41:38.596Z,100180.38
2022-11-17T03:42:40.141Z,100179.54
2022-11-17T03:43:39.934Z,100180.56
2022-11-17T03:44:42.849Z,100182.45
2022-11-17T03:45:48.348Z,100179.28
2022-11-17T03:46:44.311Z,100184.19
2022-11-17T03:47:44.155Z,100180.62
2022-11-17T03:48:51.026Z,100183.78
2022-11-17T03:51:51.253Z,100178.69
2022-11-17T03:52:52.174Z,100177.66
2022-11-17T03:53:51.768Z,100176.46
2022-11-17T03:54:52.912Z,100176.46
2022-11-17T03:58:06.469Z,100174.42
2022-11-17T04:00:06.876Z,100174.99
2022-11-17T04:01:02.675Z,100180.87
2022-11-17T04:02:00.819Z,100179.16
2022-11-17T04:03:01.153Z,100173.84
2022-11-17T04:04:01.264Z,100169.12
2022-11-17T04:05:01.981Z,100169.67
2022-11-17T04:06:02.607Z,100175
2022-11-17T04:07:02.463Z,100167.22
2022-11-17T04:08:02.827Z,100169.53
2022-11-17T04:09:03.037Z,100168.91
2022-11-17T04:10:05.414Z,100169.72
2022-11-17T04:11:03.759Z,100166.56
2022-11-17T04:12:04.481Z,100165
2022-11-17T04:13:04.310Z,100165.12
2022-11-17T04:14:04.453Z,100169.67
2022-11-17T04:15:05.537Z,100164.88
2022-11-17T04:16:05.846Z,100169.58
2022-11-17T04:17:05.749Z,100164.69
2022-11-17T04:18:06.684Z,100164.62
2022-11-17T04:19:06.370Z,100168.45
2022-11-17T04:20:07.815Z,100166.85
2022-11-17T04:21:06.616Z,100165.01
2022-11-17T04:22:07.220Z,100167.56
2022-11-17T04:23:10.199Z,100163.91
2022-11-17T04:24:09.177Z,100163.91
2022-11-17T04:25:09.279Z,100158.17
2022-11-17T04:26:11.041Z,100158.46
2022-11-17T04:27:09.306Z,100157.69
2022-11-17T04:28:09.508Z,100152.95
2022-11-17T04:29:10.030Z,100154.76
2022-11-17T04:30:11.260Z,100156.45
2022-11-17T04:32:14.086Z,100155.66
2022-11-17T04:33:14.351Z,100151.3
2022-11-17T04:34:14.771Z,100157.02
2022-11-17T04:35:15.391Z,100156.91
2022-11-17T04:36:18.576Z,100157.45
2022-11-17T04:37:16.636Z,100161.58
2022-11-17T04:38:16.849Z,100164.06
2022-11-17T04:39:17.255Z,100162.48
2022-11-17T04:40:17.682Z,100160.72
2022-11-17T04:41:19.631Z,100156.08
2022-11-17T04:42:18.204Z,100155.28
2022-11-17T04:43:18.519Z,100153.91
2022-11-17T04:44:18.935Z,100154.75
2022-11-17T04:45:19.154Z,100155.2
2022-11-17T04:46:20.895Z,100153.11
2022-11-17T04:47:19.785Z,100150.02
2022-11-17T04:48:20.084Z,100150.14
2022-11-17T04:49:21.628Z,100150.72
2022-11-17T04:50:20.920Z,100147.65
2022-11-17T04:51:22.252Z,100143.19
2022-11-17T04:52:25.462Z,100140.64
2022-11-17T04:53:21.660Z,100139.8
2022-11-17T04:54:24.428Z,100138.53
2022-11-17T04:55:22.382Z,100139.87
2022-11-17T04:56:24.132Z,100138.91
2022-11-17T04:57:23.011Z,100134.91
2022-11-17T04:58:23.425Z,100135.2
2022-11-17T04:59:23.751Z,100139.35
2022-11-17T05:00:24.264Z,100137.1
2022-11-17T05:01:25.594Z,100135.66
2022-11-17T05:02:24.757Z,100135.85
2022-11-17T05:03:24.991Z,100135.17
2022-11-17T05:04:25.202Z,100131.25
2022-11-17T05:05:25.622Z,100126.55
2022-11-17T05:06:28.495Z,100129.7
2022-11-17T05:07:26.346Z,100132.53
2022-11-17T05:08:26.663Z,100132.04
2022-11-17T05:09:27.087Z,100133.56
2022-11-17T05:10:27.398Z,100134.27
2022-11-17T05:11:29.553Z,100133.65
2022-11-17T05:12:28.231Z,100132.83
2022-11-17T05:13:28.342Z,100131.49
2022-11-17T05:14:29.576Z,100134
2022-11-17T05:15:28.968Z,100130.65
2022-11-17T05:16:29.690Z,100134.49
2022-11-17T05:17:29.795Z,100132.66
2022-11-17T05:18:30.120Z,100133.27
2022-11-17T05:19:32.384Z,100126.83
2022-11-17T05:20:33.503Z,100127.84
2022-11-17T05:21:31.469Z,100129.11
2022-11-17T05:22:31.688Z,100132.39
2022-11-17T05:23:32.393Z,100133.67
2022-11-17T05:24:32.506Z,100131.5
2022-11-17T05:25:32.723Z,100130.42
2022-11-17T05:26:34.879Z,100130.32
2022-11-17T05:27:33.973Z,100129.57
2022-11-17T05:28:33.868Z,100129.62
2022-11-17T05:29:34.186Z,100128.06
2022-11-17T05:30:34.499Z,100126.64
2022-11-17T05:31:35.550Z,100123.84
2022-11-17T05:32:35.835Z,100122.8
2022-11-17T05:33:37.948Z,100120.9
2022-11-17T05:34:36.152Z,100122.73
2022-11-17T05:35:36.886Z,100124.14
2022-11-17T05:36:36.985Z,100124.05
2022-11-17T05:37:37.093Z,100124.14
2022-11-17T05:38:37.411Z,100123.81
2022-11-17T05:39:37.730Z,100123.91
2022-11-17T05:40:38.048Z,100120.42
2022-11-17T05:41:38.361Z,100120.77
2022-11-17T05:42:38.768Z,100121.81
2022-11-17T05:43:39.092Z,100126.5
2022-11-17T05:44:39.499Z,100119.23
2022-11-17T05:45:39.716Z,100118.72
2022-11-17T05:46:40.035Z,100117
2022-11-17T05:47:40.348Z,100117.12
2022-11-17T05:48:41.065Z,100113.28
2022-11-17T05:49:40.965Z,100112.4
2022-11-17T05:50:41.278Z,100111.88
2022-11-17T05:51:41.695Z,100108.73
2022-11-17T05:52:42.117Z,100111.61
2022-11-17T05:53:42.218Z,100107.39
2022-11-17T05:54:42.650Z,100104.77
2022-11-17T05:55:42.949Z,100103.25
2022-11-17T05:57:47.680Z,100105.49
2022-11-17T05:58:49.629Z,100102.64
2022-11-17T05:59:56.498Z,100102.98
2022-11-17T06:00:49.947Z,100101.16
2022-11-17T06:03:56.207Z,100096.27
2022-11-17T06:04:54.379Z,100097.53
2022-11-17T06:05:54.604Z,100097.45
2022-11-17T06:06:55.531Z,100101.36
2022-11-17T06:07:56.336Z,100097.87
2022-11-17T06:08:56.556Z,100098.16
2022-11-17T06:09:57.178Z,100094.76
2022-11-17T06:10:56.389Z,100097.86
2022-11-17T06:11:59.774Z,100100.75
2022-11-17T06:12:57.201Z,100097.31
2022-11-17T06:13:57.627Z,100098.16
2022-11-17T06:14:58.313Z,100099.02
2022-11-17T06:16:01.312Z,100100.98
2022-11-17T06:19:09.328Z,100099.11
2022-11-17T06:20:14.351Z,100098.53
2022-11-17T06:21:15.274Z,100099.31
2022-11-17T06:22:13.950Z,100094.83
2022-11-17T06:23:13.749Z,100090.36
2022-11-17T06:24:14.163Z,100087.8
2022-11-17T06:25:14.899Z,100084.67
2022-11-17T06:26:15.727Z,100080.7
2022-11-17T06:27:17.563Z,100076.18
2022-11-17T06:28:19.621Z,100076.41
2022-11-17T06:29:18.093Z,100075.08
2022-11-17T06:30:19.018Z,100078.27
2022-11-17T06:31:20.452Z,100079.44
2022-11-17T06:32:20.087Z,100079.91
2022-11-17T06:33:19.863Z,100078.97
2022-11-17T06:34:19.757Z,100076.5
2022-11-17T06:35:20.380Z,100076.76
2022-11-17T06:36:20.595Z,100074.07
2022-11-17T06:37:21.116Z,100073.56
2022-11-17T06:38:20.919Z,100080.56
2022-11-17T06:39:21.126Z,100077.22
2022-11-17T06:40:21.636Z,100074.03
2022-11-17T06:41:22.064Z,100071.31
2022-11-17T06:42:22.376Z,100072.23
2022-11-17T06:43:22.896Z,100075.48
2022-11-17T06:44:22.998Z,100069.02
2022-11-17T06:45:23.520Z,100071.65
2022-11-17T06:46:23.950Z,100067.3
2022-11-17T06:47:24.181Z,100063.83
2022-11-17T06:48:24.874Z,100064.42
2022-11-17T06:49:25.201Z,100068.58
2022-11-17T06:50:25.706Z,100059.19
2022-11-17T06:51:26.020Z,100067.7
2022-11-17T06:52:26.341Z,100061.75
2022-11-17T06:53:26.952Z,100062.27
2022-11-17T06:54:27.163Z,100062.32
2022-11-17T06:55:27.785Z,100065.71
2022-11-17T06:56:28.910Z,100065.84
2022-11-17T06:57:28.212Z,100063.99
2022-11-17T06:58:29.237Z,100064.02
2022-11-17T06:59:28.753Z,100065.7
2022-11-17T07:00:30.523Z,100061.53
2022-11-17T07:01:29.537Z,100062.98
2022-11-17T07:02:31.929Z,100063.11
2022-11-17T07:03:30.188Z,100062.05
2022-11-17T07:04:30.321Z,100065.89
2022-11-17T07:05:32.669Z,100065.84
2022-11-17T07:06:31.340Z,100059.89
2022-11-17T07:07:31.739Z,100060.11
2022-11-17T07:08:32.961Z,100056.85
2022-11-17T07:09:32.288Z,100057.17
2022-11-17T07:10:34.028Z,100057.78
2022-11-17T07:11:35.679Z,100060.91
2022-11-17T07:12:34.455Z,100057.38
2022-11-17T07:13:35.358Z,100058.55
2022-11-17T07:14:34.365Z,100056.3
2022-11-17T07:15:34.882Z,100057.3
2022-11-17T07:16:35.090Z,100056.87
2022-11-17T07:17:35.505Z,100054.23
2022-11-17T07:18:36.813Z,100047.43
2022-11-17T07:19:36.030Z,100046.3
2022-11-17T07:20:36.270Z,100042.98
2022-11-17T07:21:36.759Z,100039.02
2022-11-17T07:22:37.808Z,100042.66
2022-11-17T07:23:39.173Z,100036.83
2022-11-17T07:24:37.804Z,100035.4
2022-11-17T07:25:38.037Z,100034.2
2022-11-17T07:26:38.328Z,100028.12
2022-11-17T07:27:38.963Z,100030.84
2022-11-17T07:28:39.241Z,100028.5
2022-11-17T07:29:39.282Z,100029.11
2022-11-17T07:30:39.581Z,100031.3
2022-11-17T07:31:39.821Z,100026.23
2022-11-17T07:32:40.322Z,100031.25
2022-11-17T07:33:40.736Z,100022.81
2022-11-17T07:34:41.865Z,100025.09
2022-11-17T07:35:41.463Z,100023.27
2022-11-17T07:36:41.676Z,100021.12
2022-11-17T07:37:41.992Z,100020.17
2022-11-17T07:38:42.409Z,100021.84
2022-11-17T07:39:42.722Z,100022.38
2022-11-17T07:40:42.721Z,100020.62
2022-11-17T07:41:43.195Z,100021.28
2022-11-17T07:42:49.290Z,100022.07
2022-11-17T07:43:47.360Z,100020.95
2022-11-17T07:44:47.772Z,100018.82
2022-11-17T07:45:48.083Z,100019.02
2022-11-17T07:46:48.404Z,100019.84
2022-11-17T07:47:56.282Z,100014.76
2022-11-17T07:48:49.270Z,100018.84
2022-11-17T07:49:49.653Z,100021.09
2022-11-17T07:50:50.062Z,100018.7
2022-11-17T07:51:50.268Z,100023.02
2022-11-17T07:52:52.017Z,100016.91
2022-11-17T07:53:50.909Z,100016.73
2022-11-17T07:54:51.414Z,100017.82
2022-11-17T07:55:51.624Z,100019.75
2022-11-17T07:56:52.045Z,100016.88
2022-11-17T07:57:59.119Z,100016.1
2022-11-17T07:58:57.333Z,100016.33
2022-11-17T07:59:57.490Z,100014.03
2022-11-17T08:00:57.897Z,100011.02
2022-11-17T08:01:58.233Z,100011.02
2022-11-17T08:03:02.228Z,100011.48
2022-11-17T08:04:01.085Z,100007.58
2022-11-17T08:05:00.498Z,100009.79
2022-11-17T08:06:08.175Z,100014.33
2022-11-17T08:07:01.193Z,100012.89
2022-11-17T08:08:01.638Z,100015.97
2022-11-17T08:09:01.859Z,100014.38
2022-11-17T08:10:02.058Z,100017.05
2022-11-17T08:12:07.507Z,100019.03
2022-11-17T08:13:07.307Z,100015.02
2022-11-17T08:14:07.934Z,100018.47
2022-11-17T08:15:09.021Z,100013.68
2022-11-17T08:16:09.917Z,100014.84
2022-11-17T08:17:08.871Z,100011.31
2022-11-17T08:18:08.970Z,100002.81
2022-11-17T08:19:11.845Z,100009.77
2022-11-17T08:20:10.524Z,100011.33
2022-11-17T08:22:13.198Z,100008.3
2022-11-17T08:23:13.458Z,100002.3
2022-11-17T08:24:13.940Z,100000.11
2022-11-17T08:25:14.158Z,100000.09
2022-11-17T08:26:14.509Z,99998.12
2022-11-17T08:27:14.776Z,99998.7
2022-11-17T08:28:14.988Z,99997.73
2022-11-17T08:29:15.394Z,99995.62
2022-11-17T08:30:16.045Z,99998.2
2022-11-17T08:31:16.137Z,99997.27
2022-11-17T08:32:16.558Z,99995.28
2022-11-17T08:33:16.753Z,99990.47
2022-11-17T08:34:17.072Z,99988.62
2022-11-17T08:35:17.687Z,99984.82
2022-11-17T08:36:17.909Z,99981.95
2022-11-17T08:37:18.023Z,99980.45
2022-11-17T08:38:18.568Z,99978.83
2022-11-17T08:39:18.642Z,99975.94
2022-11-17T08:40:19.869Z,99979.28
2022-11-17T08:41:19.369Z,99976.73
2022-11-17T08:42:19.692Z,99977.96
2022-11-17T08:43:20.090Z,99977.99
2022-11-17T08:44:20.508Z,99978.84
2022-11-17T08:45:20.827Z,99975.06
2022-11-17T08:46:21.043Z,99975.92
2022-11-17T08:47:21.467Z,99978.85
2022-11-17T08:48:21.978Z,99976.53
2022-11-17T08:49:22.084Z,99973.11
2022-11-17T08:50:22.721Z,99970.2
2022-11-17T08:51:22.703Z,99970.6
2022-11-17T08:52:22.818Z,99968.1
2022-11-17T08:53:24.641Z,99969.39
2022-11-17T08:54:23.759Z,99967.53
2022-11-17T08:55:24.127Z,99961.97
2022-11-17T08:56:24.598Z,99961.61
2022-11-17T08:57:24.885Z,99957.24
2022-11-17T08:58:25.121Z,99959.79
2022-11-17T08:59:25.844Z,99960.08
2022-11-17T09:00:25.740Z,99957.61
2022-11-17T09:01:26.198Z,99958.28
2022-11-17T09:02:26.678Z,99958.98
2022-11-17T09:03:26.678Z,99961.34
2022-11-17T09:04:27.110Z,99955.16
2022-11-17T09:05:27.429Z,99957.3
2022-11-17T09:06:27.524Z,99955.33
2022-11-17T09:07:33.525Z,99953.29
2022-11-17T09:08:48.294Z,99955.48
2022-11-17T09:09:36.527Z,99953.81
2022-11-17T09:10:40.152Z,99956.02
2022-11-17T09:11:38.411Z,99955.91
2022-11-17T09:12:39.237Z,99960.11
2022-11-17T09:13:39.861Z,99953.37
2022-11-17T09:14:39.341Z,99951.8
2022-11-17T09:15:39.873Z,99955.31
2022-11-17T09:16:40.195Z,99944.78
2022-11-17T09:17:40.608Z,99948.49
2022-11-17T09:18:41.813Z,99952.87
2022-11-17T09:19:41.234Z,99953.53
2022-11-17T09:20:45.649Z,99951.8
2022-11-17T09:21:44.220Z,99949.68
2022-11-17T09:22:44.944Z,99948.31
2022-11-17T09:23:45.012Z,99948.47
2022-11-17T09:24:45.595Z,99950.96
2022-11-17T09:25:45.674Z,99951.66
2022-11-17T09:26:45.792Z,99947.86
2022-11-17T09:27:46.504Z,99948.08
2022-11-17T09:28:47.024Z,99941.22
2022-11-17T09:29:47.028Z,99936.48
2022-11-17T09:30:47.334Z,99936.14
2022-11-17T09:31:47.853Z,99935.27
2022-11-17T09:32:48.076Z,99932.49
2022-11-17T09:33:49.011Z,99931.22
2022-11-17T09:34:48.990Z,99931.62
2022-11-17T09:35:49.150Z,99928.08
2022-11-17T09:36:49.154Z,99926.5
2022-11-17T09:37:49.952Z,99926.58
2022-11-17T09:38:50.363Z,99926.91
2022-11-17T09:39:50.364Z,99925.24
2022-11-17T09:40:51.130Z,99924.53
2022-11-17T09:41:53.967Z,99919.66
2022-11-17T09:42:52.443Z,99918.42
2022-11-17T09:51:12.466Z,99913.56
2022-11-17T09:54:24.773Z,99912.2
2022-11-17T09:56:18.319Z,99918.86
2022-11-17T09:59:25.923Z,99911.89
2022-11-17T10:00:25.830Z,99910.78
2022-11-17T10:01:24.486Z,99911.22
2022-11-17T10:02:25.186Z,99912.39
2022-11-17T10:04:30.162Z,99908.09
2022-11-17T10:05:32.209Z,99904.91
2022-11-17T10:06:32.118Z,99903.88
2022-11-17T10:07:32.468Z,99906.39
2022-11-17T10:11:44.532Z,99895.7
2022-11-17T10:12:48.245Z,99905.58
2022-11-17T10:13:46.289Z,99897.88
2022-11-17T10:14:49.271Z,99887.19
2022-11-17T10:15:51.017Z,99887.98
2022-11-17T10:17:53.274Z,99890.38
2022-11-17T10:18:53.902Z,99890.54
2022-11-17T10:19:54.535Z,99887.44
2022-11-17T10:20:54.631Z,99884.94
2022-11-17T10:22:59.553Z,99885.3
2022-11-17T10:24:00.283Z,99886.55
2022-11-17T10:24:59.877Z,99887.15
2022-11-17T10:26:00.501Z,99886.91
2022-11-17T10:27:00.510Z,99886.56
2022-11-17T10:28:00.623Z,99887.21
2022-11-17T10:32:15.808Z,99879.69
2022-11-17T10:33:15.016Z,99881.5
2022-11-17T10:35:28.516Z,99879.95
2022-11-17T10:36:32.242Z,99878.25
2022-11-17T10:37:30.575Z,99875.7
2022-11-17T10:38:30.785Z,99876.98
2022-11-17T10:42:33.114Z,99873.52
2022-11-17T10:43:37.706Z,99875.12
2022-11-17T10:44:40.858Z,99872.88
2022-11-17T10:45:50.710Z,99869.53
2022-11-17T10:47:46.822Z,99863
2022-11-17T10:49:48.380Z,99859.59
2022-11-17T10:50:57.908Z,99864.88
2022-11-17T11:01:32.554Z,99853.38
2022-11-17T11:03:32.897Z,99842.64
2022-11-17T11:04:34.871Z,99848.42
2022-11-17T11:05:27.901Z,99842.81
2022-11-17T11:06:30.697Z,99846.75
2022-11-17T11:07:28.955Z,99845.62
2022-11-17T11:09:33.558Z,99842.5
2022-11-17T11:10:36.022Z,99840.56
2022-11-17T11:11:45.040Z,99845.12
2022-11-17T11:15:47.736Z,99834.1
2022-11-17T11:16:50.297Z,99837.42
2022-11-17T11:17:48.374Z,99834.53
2022-11-17T11:18:52.664Z,99833.88
2022-11-17T11:19:54.815Z,99838.35
2022-11-17T11:30:13.422Z,99827.33
2022-11-17T11:40:38.579Z,99816.66
2022-11-17T11:49:02.082Z,99814.41
2022-11-17T11:55:26.904Z,99805.69
2022-11-17T11:57:34.589Z,99797.86
2022-11-17T11:58:27.944Z,99798.01
2022-11-17T12:00:28.664Z,99796.06
2022-11-17T12:11:55.479Z,99799.25
2022-11-17T12:12:54.015Z,99794.6
2022-11-17T12:13:57.017Z,99796.95
2022-11-17T12:18:07.283Z,99793.09
2022-11-17T12:21:13.937Z,99795.47
2022-11-17T12:29:30.185Z,99792.09
2022-11-17T12:34:37.591Z,99782.5
2022-11-17T12:35:39.057Z,99783.8
2022-11-17T12:36:37.938Z,99776.75
2022-11-17T12:37:38.236Z,99781.7
2022-11-17T12:38:41.620Z,99782.61
2022-11-17T12:40:46.044Z,99782.43
2022-11-17T12:43:47.698Z,99782.45
2022-11-17T12:48:18.289Z,99779.34
2022-11-17T13:07:01.078Z,99772.3
2022-11-17T13:09:02.299Z,99774.44
2022-11-17T13:09:57.488Z,99774.3
2022-11-17T13:15:06.429Z,99775.41
2022-11-17T13:16:05.920Z,99771.63
2022-11-17T13:17:11.374Z,99770.23
2022-11-17T13:18:19.247Z,99765.22
2022-11-17T13:22:20.387Z,99772.77
2022-11-17T13:23:24.928Z,99774.42
2022-11-17T13:25:24.008Z,99772.67
2022-11-17T13:26:29.330Z,99773.58
2022-11-17T13:27:32.314Z,99771.72
2022-11-17T13:28:32.742Z,99777.97
2022-11-17T13:29:30.894Z,99780.09
2022-11-17T13:30:32.659Z,99778.78
2022-11-17T13:31:31.521Z,99778.41
2022-11-17T13:32:31.928Z,99775.26
2022-11-17T13:33:36.863Z,99773.61
2022-11-17T13:34:33.067Z,99779.83
2022-11-17T13:35:35.945Z,99778.74
2022-11-17T13:36:34.523Z,99775.83
2022-11-17T13:37:34.429Z,99776.38
2022-11-17T13:38:34.656Z,99774.88
2022-11-17T13:39:35.160Z,99775.91
2022-11-17T13:40:37.517Z,99774.93
2022-11-17T13:41:39.883Z,99774.2
2022-11-17T13:42:38.139Z,99781.41
2022-11-17T13:43:40.406Z,99784.02
2022-11-17T13:44:38.887Z,99784.77
2022-11-17T13:45:39.181Z,99783.23
2022-11-17T13:46:39.299Z,99780.91
2022-11-17T13:47:45.751Z,99783.98
2022-11-17T13:48:45.661Z,99787.3
2022-11-17T13:49:44.149Z,99787.33
2022-11-17T13:50:44.443Z,99784.75
2022-11-17T13:51:46.197Z,99786.05
2022-11-17T13:52:47.028Z,99785.72
2022-11-17T13:54:48.979Z,99785.95
2022-11-17T13:55:49.507Z,99791.61
2022-11-17T13:58:55.555Z,99789.33
2022-11-17T13:59:56.692Z,99788.53
2022-11-17T14:00:57.209Z,99788.36
2022-11-17T14:07:11.851Z,99788.21
2022-11-17T14:08:13.950Z,99793.61
2022-11-17T14:09:11.999Z,99791.95
2022-11-17T14:11:17.238Z,99789.3
2022-11-17T14:12:17.857Z,99790.92
2022-11-17T14:17:28.442Z,99791.03
2022-11-17T14:18:37.148Z,99787.48
2022-11-17T14:19:34.407Z,99784.34
2022-11-17T14:20:34.715Z,99788.23
2022-11-17T14:21:33.308Z,99784.28
2022-11-17T14:22:33.290Z,99789.02
2022-11-17T14:23:34.009Z,99788.62
2022-11-17T14:24:33.711Z,99792.41
2022-11-17T14:25:36.883Z,99797.52
2022-11-17T14:26:34.946Z,99795.9
2022-11-17T14:27:39.974Z,99797.2
2022-11-17T14:28:38.044Z,99800.3
2022-11-17T14:29:38.449Z,99797.75
2022-11-17T14:30:38.678Z,99796.89
2022-11-17T14:31:39.604Z,99792.61
2022-11-17T14:32:39.198Z,99796.98
2022-11-17T14:33:39.806Z,99796.28
2022-11-17T14:34:39.724Z,99797.64
2022-11-17T14:35:40.292Z,99793.48
2022-11-17T14:36:41.880Z,99792.45
2022-11-17T14:37:40.857Z,99795.84
2022-11-17T14:38:41.685Z,99795.85
2022-11-17T14:39:41.692Z,99797.19
2022-11-17T14:40:42.220Z,99798.51
2022-11-17T14:41:43.659Z,99795.48
2022-11-17T14:42:42.836Z,99794.61
2022-11-17T14:43:42.954Z,99792.81
2022-11-17T14:44:43.462Z,99793.55
2022-11-17T14:45:43.675Z,99791.29
2022-11-17T14:46:44.191Z,99791.48
2022-11-17T14:47:44.504Z,99792.67
2022-11-17T14:48:44.816Z,99792.86
2022-11-17T14:49:45.050Z,99790.12
2022-11-17T14:50:45.359Z,99801
2022-11-17T14:51:49.753Z,99793.06
2022-11-17T14:52:47.714Z,99791.32
2022-11-17T14:53:48.437Z,99788.83
2022-11-17T14:54:48.455Z,99794.8
2022-11-17T14:55:48.551Z,99795.09
2022-11-17T14:56:49.077Z,99788.69
2022-11-17T14:57:49.699Z,99800.98
2022-11-17T14:58:53.644Z,99796.47
2022-11-17T14:59:51.653Z,99801.05
2022-11-17T15:00:51.962Z,99799.17
2022-11-17T15:01:52.383Z,99802.58
2022-11-17T15:02:52.698Z,99800.73
2022-11-17T15:03:53.495Z,99802.94
2022-11-17T15:04:53.787Z,99805.77
2022-11-17T15:05:53.745Z,99814.75
2022-11-17T15:06:54.101Z,99807.05
2022-11-17T15:07:56.427Z,99810.28
2022-11-17T15:09:01.239Z,99810.27
2022-11-17T15:09:59.000Z,99810.47
2022-11-17T15:10:59.708Z,99809.55
2022-11-17T15:12:00.236Z,99801.19
2022-11-17T15:13:00.346Z,99805.17
2022-11-17T15:14:04.550Z,99803.98
2022-11-17T15:15:02.812Z,99805.52
2022-11-17T15:16:04.674Z,99804.34
2022-11-17T15:17:03.549Z,99804.83
2022-11-17T15:18:03.753Z,99802.97
2022-11-17T15:19:04.172Z,99806.86
2022-11-17T15:20:05.204Z,99805
2022-11-17T15:21:07.663Z,99799.26